Time;durP1;ratioP1;P1;durP2;ratioP2;P2;SDS_P1;SDS_P2;PMS_P1;PMS_P2;Temp;Humidity;BMP_temperature;BMP_pressure;BME280_temperature;BME280_humidity;BME280_pressure;Samples;Min_cycle;Max_cycle;Signal;HPM_P1;HPM_P2
2021/10/08 00:01:28;;;;;;;15.48;9.25;;;;;;;;;;5052398;28;20083;-89
2021/10/08 00:03:54;;;;;;;15.57;9.50;;;;;;;;;;5052619;28;20025;-86
2021/10/08 00:06:20;;;;;;;15.00;9.43;;;;;;;;;;5053397;28;20039;-86
2021/10/08 00:08:46;;;;;;;20.20;10.07;;;;;;;;;;5054857;28;20198;-89
2021/10/08 00:11:11;;;;;;;14.15;9.60;;;;;;;;;;5054769;28;20071;-89
2021/10/08 00:13:37;;;;;;;14.85;9.88;;;;;;;;;;5054365;28;20029;-89
2021/10/08 00:16:05;;;;;;;18.98;9.25;;;;;;;;;;5056121;28;20112;-89
2021/10/08 00:18:31;;;;;;;14.73;9.10;;;;;;;;;;5071447;28;20552;-89
2021/10/08 00:20:57;;;;;;;12.27;8.52;;;;;;;;;;5062600;28;20064;-86
2021/10/08 00:23:22;;;;;;;14.75;9.23;;;;;;;;;;5054831;28;20078;-86
2021/10/08 00:25:47;;;;;;;20.13;13.70;;;;;;;;;;5055475;28;20033;-86
2021/10/08 00:28:12;;;;;;;16.88;9.43;;;;;;;;;;5054302;28;20032;-87
2021/10/08 00:30:38;;;;;;;15.93;8.98;;;;;;;;;;5064365;28;20035;-88
2021/10/08 00:33:03;;;;;;;12.65;9.35;;;;;;;;;;5056287;28;20028;-87
2021/10/08 00:35:29;;;;;;;14.75;8.75;;;;;;;;;;5051055;28;20108;-87
2021/10/08 00:37:54;;;;;;;13.48;8.85;;;;;;;;;;5050499;28;20033;-87
2021/10/08 00:40:20;;;;;;;15.43;9.82;;;;;;;;;;5039248;28;20021;-87
2021/10/08 00:42:47;;;;;;;18.80;9.25;;;;;;;;;;5036144;28;20021;-88
2021/10/08 00:45:13;;;;;;;15.15;9.27;;;;;;;;;;5034564;28;20116;-88
2021/10/08 00:47:38;;;;;;;14.05;9.02;;;;;;;;;;5050643;28;20134;-88
2021/10/08 00:50:08;;;;;;;14.48;8.80;;;;;;;;;;5042559;28;20033;-88
2021/10/08 00:52:34;;;;;;;14.40;8.98;;;;;;;;;;5058351;28;20010;-88
2021/10/08 00:54:59;;;;;;;16.70;9.85;;;;;;;;;;5038293;28;20060;-87
2021/10/08 00:57:25;;;;;;;15.85;9.25;;;;;;;;;;5033663;28;20064;-88
2021/10/08 00:59:50;;;;;;;17.60;9.10;;;;;;;;;;5033608;28;20025;-88
2021/10/08 01:02:16;;;;;;;13.50;9.27;;;;;;;;;;5034670;28;20132;-88
2021/10/08 01:04:44;;;;;;;16.17;9.43;;;;;;;;;;5035210;28;20100;-88
2021/10/08 01:07:09;;;;;;;20.30;9.27;;;;;;;;;;5041845;28;20532;-88
2021/10/08 01:09:34;;;;;;;15.95;8.68;;;;;;;;;;5034441;28;20121;-88
2021/10/08 01:12:00;;;;;;;16.77;9.20;;;;;;;;;;5034748;28;20051;-88
2021/10/08 01:14:25;;;;;;;13.38;9.02;;;;;;;;;;5049835;28;20036;-88
2021/10/08 01:16:50;;;;;;;14.75;9.40;;;;;;;;;;5033422;28;20060;-88
2021/10/08 01:19:16;;;;;;;13.85;9.25;;;;;;;;;;5033397;28;20033;-88
2021/10/08 01:21:42;;;;;;;15.73;9.73;;;;;;;;;;5034942;28;20057;-87
2021/10/08 01:24:08;;;;;;;16.92;10.55;;;;;;;;;;5040863;28;20036;-88
2021/10/08 01:26:33;;;;;;;18.20;11.23;;;;;;;;;;5042108;28;20079;-87
2021/10/08 01:28:58;;;;;;;19.35;10.45;;;;;;;;;;5034500;28;20018;-87
2021/10/08 01:31:26;;;;;;;17.27;9.52;;;;;;;;;;5034429;28;20141;-87
2021/10/08 01:33:51;;;;;;;15.43;8.73;;;;;;;;;;5033912;28;20022;-87
2021/10/08 01:36:17;;;;;;;17.70;9.25;;;;;;;;;;5033357;28;20071;-87
2021/10/08 01:38:42;;;;;;;16.75;10.02;;;;;;;;;;5046191;28;20465;-88
2021/10/08 01:41:08;;;;;;;16.20;9.80;;;;;;;;;;5069051;28;20446;-88
2021/10/08 01:43:33;;;;;;;15.55;9.40;;;;;;;;;;5054609;28;20029;-87
2021/10/08 01:45:58;;;;;;;19.60;8.90;;;;;;;;;;5053057;28;20439;-88
2021/10/08 01:48:24;;;;;;;14.32;8.95;;;;;;;;;;5054758;28;20028;-88
2021/10/08 01:50:49;;;;;;;22.85;10.25;;;;;;;;;;5032650;28;20028;-88
2021/10/08 01:53:15;;;;;;;18.08;9.80;;;;;;;;;;5033972;28;20098;-88
2021/10/08 01:55:40;;;;;;;19.83;10.32;;;;;;;;;;5033735;28;20522;-88
2021/10/08 01:58:05;;;;;;;22.33;10.30;;;;;;;;;;5033911;28;20022;-88
2021/10/08 02:00:31;;;;;;;18.20;10.30;;;;;;;;;;5032840;28;20485;-88
2021/10/08 02:02:56;;;;;;;18.05;10.40;;;;;;;;;;5032522;28;20030;-88
2021/10/08 02:05:22;;;;;;;19.20;9.07;;;;;;;;;;5051010;28;20025;-88
2021/10/08 02:07:47;;;;;;;20.42;10.10;;;;;;;;;;5052649;28;20033;-88
2021/10/08 02:10:14;;;;;;;24.35;10.80;;;;;;;;;;5052871;28;20089;-88
2021/10/08 02:12:40;;;;;;;19.92;9.98;;;;;;;;;;5052384;28;20108;-88
2021/10/08 02:15:05;;;;;;;20.83;10.10;;;;;;;;;;5052591;28;20132;-88
2021/10/08 02:17:31;;;;;;;24.33;10.98;;;;;;;;;;5054099;28;20040;-88
2021/10/08 02:19:56;;;;;;;16.90;9.60;;;;;;;;;;5053053;28;20163;-88
2021/10/08 02:22:21;;;;;;;27.52;10.93;;;;;;;;;;5068882;28;20020;-87
2021/10/08 02:24:47;;;;;;;22.15;10.20;;;;;;;;;;5057592;28;20025;-88
2021/10/08 02:27:12;;;;;;;22.88;10.57;;;;;;;;;;5057122;28;20028;-88
2021/10/08 02:29:38;;;;;;;22.80;9.57;;;;;;;;;;5056215;28;20078;-88
2021/10/08 02:32:03;;;;;;;25.20;11.48;;;;;;;;;;5048215;28;20052;-88
2021/10/08 02:34:29;;;;;;;17.30;9.68;;;;;;;;;;5053118;28;20021;-88
2021/10/08 02:36:55;;;;;;;20.08;9.23;;;;;;;;;;5038583;28;20025;-88
2021/10/08 02:39:20;;;;;;;22.55;10.38;;;;;;;;;;5037186;28;20025;-88
2021/10/08 02:41:46;;;;;;;21.58;10.85;;;;;;;;;;5057095;28;20060;-88
2021/10/08 02:44:11;;;;;;;25.50;10.90;;;;;;;;;;5057005;28;20476;-88
2021/10/08 02:46:37;;;;;;;16.77;9.23;;;;;;;;;;5057434;28;20025;-88
2021/10/08 02:49:03;;;;;;;18.80;10.00;;;;;;;;;;5057391;28;20025;-88
2021/10/08 02:51:28;;;;;;;19.02;10.57;;;;;;;;;;5057192;28;20050;-88
2021/10/08 02:53:54;;;;;;;15.48;9.40;;;;;;;;;;5055882;28;20021;-88
2021/10/08 02:56:19;;;;;;;18.55;10.00;;;;;;;;;;5056033;28;20045;-88
2021/10/08 02:58:44;;;;;;;23.60;10.55;;;;;;;;;;5062333;28;20013;-87
2021/10/08 03:01:10;;;;;;;14.90;9.32;;;;;;;;;;5060350;28;20025;-87
2021/10/08 03:03:35;;;;;;;17.45;9.75;;;;;;;;;;5058513;28;20052;-88
2021/10/08 03:06:00;;;;;;;20.77;10.20;;;;;;;;;;5057093;28;20027;-87
2021/10/08 03:08:26;;;;;;;24.92;10.65;;;;;;;;;;5047522;28;20033;-87
2021/10/08 03:10:51;;;;;;;23.92;10.38;;;;;;;;;;5036830;28;20060;-87
2021/10/08 03:13:16;;;;;;;17.40;10.35;;;;;;;;;;5052211;28;20022;-87
2021/10/08 03:15:42;;;;;;;17.95;10.65;;;;;;;;;;5035732;28;20377;-89
2021/10/08 03:18:07;;;;;;;17.92;10.18;;;;;;;;;;5035579;28;20014;-87
2021/10/08 03:20:32;;;;;;;19.75;9.98;;;;;;;;;;5053940;28;20084;-88
2021/10/08 03:22:58;;;;;;;21.27;8.85;;;;;;;;;;5040366;28;20477;-87
2021/10/08 03:25:24;;;;;;;18.58;9.30;;;;;;;;;;5036583;28;20098;-88
2021/10/08 03:27:49;;;;;;;16.08;9.88;;;;;;;;;;5038389;28;20048;-87
2021/10/08 03:30:15;;;;;;;18.15;9.20;;;;;;;;;;5038852;28;20032;-87
2021/10/08 03:32:41;;;;;;;21.83;9.80;;;;;;;;;;5043219;28;20031;-87
2021/10/08 03:35:07;;;;;;;17.30;9.20;;;;;;;;;;5037135;28;20104;-87
2021/10/08 03:37:40;;;;;;;19.70;9.57;;;;;;;;;;5053810;28;20025;-87
2021/10/08 03:40:09;;;;;;;21.50;9.57;;;;;;;;;;5036969;28;20075;-88
2021/10/08 03:42:34;;;;;;;19.80;10.10;;;;;;;;;;5052078;28;20029;-88
2021/10/08 03:45:08;;;;;;;18.25;10.02;;;;;;;;;;5036234;28;20500;-88
2021/10/08 03:47:51;;;;;;;18.17;10.10;;;;;;;;;;5037424;28;20397;-88
2021/10/08 03:50:16;;;;;;;19.17;10.52;;;;;;;;;;5036026;28;20088;-88
2021/10/08 03:52:42;;;;;;;16.63;9.68;;;;;;;;;;5034819;28;20029;-88
2021/10/08 03:55:07;;;;;;;20.48;9.95;;;;;;;;;;5036010;28;20071;-88
2021/10/08 03:57:32;;;;;;;29.45;10.43;;;;;;;;;;5042694;28;20079;-88
2021/10/08 03:59:58;;;;;;;17.58;9.82;;;;;;;;;;5035811;28;20021;-88
2021/10/08 04:02:23;;;;;;;17.65;9.73;;;;;;;;;;5051383;28;20060;-88
2021/10/08 04:04:48;;;;;;;18.90;10.23;;;;;;;;;;5034875;28;20491;-88
2021/10/08 04:07:14;;;;;;;17.20;10.60;;;;;;;;;;5035089;28;20045;-88
2021/10/08 04:09:39;;;;;;;21.73;10.63;;;;;;;;;;5034528;28;20022;-88
2021/10/08 04:12:04;;;;;;;23.98;11.32;;;;;;;;;;5051300;28;20024;-89
2021/10/08 04:14:31;;;;;;;19.52;10.52;;;;;;;;;;5054619;28;20032;-89
2021/10/08 04:16:57;;;;;;;23.23;11.98;;;;;;;;;;5052174;28;20099;-89
2021/10/08 04:19:22;;;;;;;21.73;10.93;;;;;;;;;;5058088;28;20020;-89
2021/10/08 04:21:47;;;;;;;23.15;10.85;;;;;;;;;;5036105;28;20040;-89
2021/10/08 04:24:13;;;;;;;25.38;12.25;;;;;;;;;;5036764;28;20029;-88
2021/10/08 04:26:38;;;;;;;26.25;12.38;;;;;;;;;;5041396;28;20121;-89
2021/10/08 04:29:03;;;;;;;24.83;11.55;;;;;;;;;;5036504;28;20424;-87
2021/10/08 04:31:29;;;;;;;24.40;11.50;;;;;;;;;;5047992;28;20068;-88
2021/10/08 04:33:54;;;;;;;22.67;12.30;;;;;;;;;;5037723;28;20097;-88
2021/10/08 04:36:19;;;;;;;27.08;11.45;;;;;;;;;;5037555;28;20025;-88
2021/10/08 04:38:46;;;;;;;24.33;12.10;;;;;;;;;;5052100;28;20021;-88
2021/10/08 04:41:11;;;;;;;33.22;12.45;;;;;;;;;;5045283;28;20063;-88
2021/10/08 04:43:36;;;;;;;30.42;12.20;;;;;;;;;;5058491;28;20032;-88
2021/10/08 04:46:02;;;;;;;27.38;12.20;;;;;;;;;;5057562;28;20020;-88
2021/10/08 04:48:27;;;;;;;21.67;12.32;;;;;;;;;;5055469;28;20035;-88
2021/10/08 04:50:55;;;;;;;21.30;11.57;;;;;;;;;;5038480;28;20025;-88
2021/10/08 04:53:22;;;;;;;24.58;11.57;;;;;;;;;;5033997;28;20025;-88
2021/10/08 04:55:49;;;;;;;27.60;12.23;;;;;;;;;;5044009;28;20025;-88
2021/10/08 04:58:15;;;;;;;23.10;12.15;;;;;;;;;;5044666;28;20040;-88
2021/10/08 05:00:40;;;;;;;26.50;13.07;;;;;;;;;;5036063;28;20056;-88
2021/10/08 05:03:10;;;;;;;30.48;12.80;;;;;;;;;;5059611;28;20025;-89
2021/10/08 05:05:36;;;;;;;32.50;14.07;;;;;;;;;;5038888;28;20033;-88
2021/10/08 05:08:02;;;;;;;25.73;13.25;;;;;;;;;;5045836;28;20026;-88
2021/10/08 05:10:28;;;;;;;30.95;14.25;;;;;;;;;;5051898;28;20025;-88
2021/10/08 05:12:53;;;;;;;37.72;15.82;;;;;;;;;;5038205;28;20032;-89
2021/10/08 05:15:19;;;;;;;36.42;17.05;;;;;;;;;;5044676;28;20396;-89
2021/10/08 05:17:44;;;;;;;40.35;16.85;;;;;;;;;;5040248;28;20029;-89
2021/10/08 05:20:10;;;;;;;35.33;18.55;;;;;;;;;;5054741;28;20047;-89
2021/10/08 05:22:35;;;;;;;47.42;22.13;;;;;;;;;;5053304;28;20032;-89
2021/10/08 05:25:01;;;;;;;55.90;29.67;;;;;;;;;;5053320;28;20025;-90
2021/10/08 05:27:26;;;;;;;53.67;24.48;;;;;;;;;;5055271;28;20033;-88
2021/10/08 05:29:52;;;;;;;46.58;22.70;;;;;;;;;;5053939;28;20063;-90
2021/10/08 05:32:17;;;;;;;42.83;20.15;;;;;;;;;;5057303;28;20116;-90
2021/10/08 05:34:42;;;;;;;45.92;19.13;;;;;;;;;;5054202;28;20025;-89
2021/10/08 05:37:08;;;;;;;52.25;21.60;;;;;;;;;;5054950;28;20033;-89
2021/10/08 05:39:33;;;;;;;34.88;14.13;;;;;;;;;;5055254;28;20051;-90
2021/10/08 05:41:58;;;;;;;39.30;14.48;;;;;;;;;;5059284;28;20028;-89
2021/10/08 05:44:24;;;;;;;30.85;13.98;;;;;;;;;;5066582;28;20060;-89
2021/10/08 05:46:51;;;;;;;40.65;16.33;;;;;;;;;;5058512;28;20021;-90
2021/10/08 05:49:16;;;;;;;32.58;15.40;;;;;;;;;;5055314;28;20025;-89
2021/10/08 05:51:41;;;;;;;37.38;18.95;;;;;;;;;;5055676;28;20134;-88
2021/10/08 05:54:07;;;;;;;43.25;20.40;;;;;;;;;;5054925;28;20053;-90
2021/10/08 05:56:32;;;;;;;36.50;16.50;;;;;;;;;;5053955;28;20400;-88
2021/10/08 05:58:57;;;;;;;35.75;15.43;;;;;;;;;;5055147;28;20396;-89
2021/10/08 06:01:23;;;;;;;42.72;15.10;;;;;;;;;;5047742;28;20488;-89
2021/10/08 06:03:48;;;;;;;41.42;17.20;;;;;;;;;;5059302;28;20005;-89
2021/10/08 06:06:25;;;;;;;44.17;17.40;;;;;;;;;;5058358;28;20513;-90
2021/10/08 06:08:52;;;;;;;48.92;17.35;;;;;;;;;;5058238;28;20488;-89
2021/10/08 06:11:31;;;;;;;54.20;20.23;;;;;;;;;;5058338;28;20025;-90
2021/10/08 06:13:56;;;;;;;53.13;22.17;;;;;;;;;;5057150;28;20140;-90
2021/10/08 06:16:35;;;;;;;;;;;;;;;;;;;;;
2021/10/08 06:19:02;;;;;;;49.63;20.75;;;;;;;;;;5049262;28;20480;-89
2021/10/08 06:21:27;;;;;;;54.75;22.63;;;;;;;;;;5040394;28;20033;-88
2021/10/08 06:27:22;;;;;;;47.38;19.52;;;;;;;;;;5009564;28;20043;-89
2021/10/08 06:29:47;;;;;;;42.28;19.67;;;;;;;;;;5063501;28;20024;-89
2021/10/08 06:35:54;;;;;;;46.90;19.70;;;;;;;;;;5058624;28;20043;-89
2021/10/08 06:38:20;;;;;;;40.38;18.10;;;;;;;;;;5056520;28;20021;-89
2021/10/08 06:40:45;;;;;;;39.88;17.90;;;;;;;;;;5058652;28;20021;-89
2021/10/08 06:44:15;;;;;;;43.03;20.40;;;;;;;;;;5057370;28;20075;-89
2021/10/08 06:46:41;;;;;;;46.58;23.55;;;;;;;;;;4964288;28;20031;-90
2021/10/08 06:49:06;;;;;;;53.33;23.42;;;;;;;;;;5041495;28;20035;-88
2021/10/08 06:51:59;;;;;;;40.55;20.08;;;;;;;;;;5055683;28;20032;-89
2021/10/08 06:54:24;;;;;;;42.45;19.50;;;;;;;;;;5056971;28;20017;-90
2021/10/08 06:57:02;;;;;;;41.42;19.95;;;;;;;;;;5053467;28;20025;-90
2021/10/08 06:59:27;;;;;;;49.42;19.52;;;;;;;;;;5047058;28;20037;-89
2021/10/08 07:01:54;;;;;;;57.28;21.15;;;;;;;;;;5052846;28;20147;-90
2021/10/08 07:07:27;;;;;;;40.70;19.42;;;;;;;;;;4994193;28;20426;-89
2021/10/08 07:09:53;;;;;;;48.22;17.95;;;;;;;;;;5054375;28;20480;-88
2021/10/08 07:13:54;;;;;;;;;;;;;;;;;;;;;
2021/10/08 07:19:37;;;;;;;38.47;17.17;;;;;;;;;;4936711;28;20061;-88
2021/10/08 07:22:02;;;;;;;47.03;16.60;;;;;;;;;;4980572;28;20107;-89
2021/10/08 07:24:28;;;;;;;44.75;17.52;;;;;;;;;;5054449;28;20400;-87
2021/10/08 07:26:53;;;;;;;37.80;17.10;;;;;;;;;;5058616;28;20400;-87
2021/10/08 07:29:35;;;;;;;38.60;17.40;;;;;;;;;;5067346;28;20021;-89
2021/10/08 07:35:10;;;;;;;40.58;15.32;;;;;;;;;;4996727;28;20176;-87
2021/10/08 07:37:47;;;;;;;43.40;16.23;;;;;;;;;;5044262;28;20495;-89
2021/10/08 07:40:34;;;;;;;32.70;15.18;;;;;;;;;;5055614;28;20048;-88
2021/10/08 07:43:36;;;;;;;30.85;13.70;;;;;;;;;;5055509;28;20545;-88
2021/10/08 07:46:02;;;;;;;31.77;15.48;;;;;;;;;;5053836;28;20048;-86
2021/10/08 07:48:27;;;;;;;33.03;14.77;;;;;;;;;;5058965;28;20033;-90
2021/10/08 07:50:53;;;;;;;35.83;15.18;;;;;;;;;;5044687;28;20071;-90
2021/10/08 07:53:18;;;;;;;36.50;15.05;;;;;;;;;;5054330;28;20047;-87
2021/10/08 07:55:43;;;;;;;27.05;14.15;;;;;;;;;;5056039;28;20086;-90
2021/10/08 08:05:56;;;;;;;49.22;17.98;;;;;;;;;;4995108;28;20081;-89
2021/10/08 08:08:23;;;;;;;29.42;14.65;;;;;;;;;;4994834;28;20026;-90
2021/10/08 08:10:49;;;;;;;32.03;15.13;;;;;;;;;;5014858;28;20060;-91
2021/10/08 08:13:14;;;;;;;33.03;15.95;;;;;;;;;;5053718;28;20030;-89
2021/10/08 08:16:32;;;;;;;25.67;16.13;;;;;;;;;;5050725;28;20388;-89
2021/10/08 08:18:58;;;;;;;26.30;15.02;;;;;;;;;;5061520;28;20072;-88
2021/10/08 08:21:23;;;;;;;28.67;15.88;;;;;;;;;;5052432;28;20049;-89
2021/10/08 08:23:49;;;;;;;35.10;15.65;;;;;;;;;;5055062;28;20353;-88
2021/10/08 08:26:41;;;;;;;36.30;16.05;;;;;;;;;;5041228;28;20021;-88
2021/10/08 08:29:07;;;;;;;37.72;16.15;;;;;;;;;;5042874;28;20064;-89
2021/10/08 08:31:45;;;;;;;33.67;14.95;;;;;;;;;;5054207;28;20032;-89
2021/10/08 08:34:10;;;;;;;38.80;16.20;;;;;;;;;;5053375;28;20495;-88
2021/10/08 08:36:59;;;;;;;26.55;13.52;;;;;;;;;;5055896;28;20028;-89
2021/10/08 08:40:29;;;;;;;;;;;;;;;;;;;;;
2021/10/08 08:43:16;;;;;;;27.42;13.65;;;;;;;;;;4989963;28;20045;-88
2021/10/08 08:45:41;;;;;;;30.95;13.68;;;;;;;;;;4981630;28;20479;-88
2021/10/08 08:48:10;;;;;;;36.92;13.38;;;;;;;;;;5048291;28;20028;-88
2021/10/08 08:50:41;;;;;;;21.95;12.65;;;;;;;;;;5053033;28;20028;-89
2021/10/08 08:53:07;;;;;;;19.35;11.60;;;;;;;;;;5055130;28;20028;-89
2021/10/08 08:59:05;;;;;;;25.85;11.88;;;;;;;;;;5044977;28;20086;-90
2021/10/08 09:01:31;;;;;;;21.08;11.60;;;;;;;;;;5053873;28;20051;-89
2021/10/08 09:04:08;;;;;;;34.05;13.02;;;;;;;;;;5034222;28;20407;-89
2021/10/08 09:06:38;;;;;;;26.58;12.20;;;;;;;;;;5055419;28;20032;-89
2021/10/08 09:09:41;;;;;;;17.13;11.20;;;;;;;;;;5044826;28;20489;-89
2021/10/08 09:12:07;;;;;;;16.13;10.20;;;;;;;;;;5027372;28;20551;-90
2021/10/08 09:14:33;;;;;;;29.85;11.60;;;;;;;;;;5055337;28;20025;-90
2021/10/08 09:17:16;;;;;;;19.20;10.70;;;;;;;;;;5053863;28;20040;-89
2021/10/08 09:19:53;;;;;;;17.73;11.40;;;;;;;;;;5053337;28;20029;-87
2021/10/08 09:22:41;;;;;;;19.30;10.63;;;;;;;;;;5054719;28;20025;-87
2021/10/08 09:25:15;;;;;;;17.58;10.02;;;;;;;;;;5053553;28;20037;-89
2021/10/08 09:27:43;;;;;;;15.73;10.55;;;;;;;;;;5054571;28;20025;-88
2021/10/08 09:30:09;;;;;;;19.90;10.82;;;;;;;;;;5052012;28;20029;-88
2021/10/08 09:32:45;;;;;;;13.98;10.63;;;;;;;;;;5045390;28;20034;-87
2021/10/08 09:35:13;;;;;;;16.80;11.38;;;;;;;;;;5035506;28;20052;-86
2021/10/08 09:37:40;;;;;;;24.73;10.98;;;;;;;;;;5033241;28;20036;-88
2021/10/08 09:40:35;;;;;;;18.90;10.02;;;;;;;;;;5032696;28;20018;-88
2021/10/08 09:43:06;;;;;;;28.67;11.88;;;;;;;;;;5041560;28;20169;-88
2021/10/08 09:45:52;;;;;;;16.48;10.82;;;;;;;;;;5046297;28;20025;-89
2021/10/08 09:48:20;;;;;;;16.05;9.98;;;;;;;;;;5053328;28;20036;-88
2021/10/08 09:51:05;;;;;;;19.45;10.25;;;;;;;;;;5051232;28;20022;-88
2021/10/08 09:53:52;;;;;;;23.38;10.23;;;;;;;;;;5039310;28;20477;-90
2021/10/08 09:56:35;;;;;;;17.55;9.93;;;;;;;;;;5033679;28;20469;-91
2021/10/08 09:59:10;;;;;;;15.18;9.82;;;;;;;;;;5055635;28;20013;-91
2021/10/08 10:01:37;;;;;;;15.55;8.52;;;;;;;;;;5050512;28;20040;-90
2021/10/08 10:04:25;;;;;;;12.52;8.63;;;;;;;;;;5053314;28;20025;-89
2021/10/08 10:06:51;;;;;;;14.43;8.38;;;;;;;;;;5043740;28;20554;-88
2021/10/08 10:09:16;;;;;;;23.83;8.00;;;;;;;;;;5052838;28;20041;-88
2021/10/08 10:11:42;;;;;;;17.13;8.30;;;;;;;;;;5053001;28;20025;-88
2021/10/08 10:14:08;;;;;;;15.40;8.85;;;;;;;;;;5064280;28;20155;-87
2021/10/08 10:16:33;;;;;;;14.80;7.72;;;;;;;;;;5051222;28;20026;-87
2021/10/08 10:19:01;;;;;;;20.42;8.90;;;;;;;;;;5051797;28;20028;-87
2021/10/08 10:21:29;;;;;;;18.48;8.50;;;;;;;;;;5052152;28;20033;-88
2021/10/08 10:23:57;;;;;;;13.85;8.52;;;;;;;;;;5052442;28;20029;-88
2021/10/08 10:26:24;;;;;;;24.35;8.70;;;;;;;;;;5051972;28;20025;-88
2021/10/08 10:28:49;;;;;;;20.67;9.48;;;;;;;;;;5052335;28;20036;-88
2021/10/08 10:31:16;;;;;;;17.17;8.70;;;;;;;;;;5053471;28;20563;-88
2021/10/08 10:33:42;;;;;;;14.75;7.93;;;;;;;;;;5051924;28;20349;-88
2021/10/08 10:36:22;;;;;;;18.67;9.15;;;;;;;;;;5054178;28;20450;-87
2021/10/08 10:38:48;;;;;;;11.55;8.23;;;;;;;;;;5057291;28;20024;-88
2021/10/08 10:41:13;;;;;;;19.52;7.82;;;;;;;;;;5052952;28;20021;-87
2021/10/08 10:43:53;;;;;;;17.33;7.80;;;;;;;;;;5055833;28;20044;-88
2021/10/08 10:52:03;;;;;;;10.13;6.28;;;;;;;;;;5046439;28;20132;-89
2021/10/08 10:54:34;;;;;;;8.25;6.00;;;;;;;;;;5063165;28;20032;-88
2021/10/08 10:57:04;;;;;;;15.88;6.80;;;;;;;;;;5062628;28;20020;-87
2021/10/08 10:59:34;;;;;;;15.13;7.00;;;;;;;;;;5061090;28;20021;-88
2021/10/08 11:02:03;;;;;;;8.45;6.38;;;;;;;;;;5061085;28;20059;-88
2021/10/08 11:04:29;;;;;;;15.43;7.20;;;;;;;;;;5061034;28;20075;-87
2021/10/08 11:07:16;;;;;;;12.50;6.40;;;;;;;;;;5066480;28;20484;-88
2021/10/08 11:09:43;;;;;;;8.98;6.25;;;;;;;;;;5061826;28;20104;-88
2021/10/08 11:12:37;;;;;;;10.38;6.80;;;;;;;;;;5060827;28;20507;-89
2021/10/08 11:15:17;;;;;;;14.48;6.13;;;;;;;;;;5077157;28;20028;-86
2021/10/08 11:17:55;;;;;;;11.20;6.57;;;;;;;;;;5061528;28;20532;-88
2021/10/08 11:20:33;;;;;;;9.05;6.05;;;;;;;;;;5060567;28;20112;-87
2021/10/08 11:23:06;;;;;;;10.15;7.05;;;;;;;;;;5061073;28;20024;-86
2021/10/08 11:25:35;;;;;;;10.60;6.13;;;;;;;;;;5060796;28;20114;-88
2021/10/08 11:28:01;;;;;;;8.45;6.57;;;;;;;;;;5059981;28;20021;-88
2021/10/08 11:30:29;;;;;;;15.38;6.63;;;;;;;;;;5059812;28;20025;-88
2021/10/08 11:32:58;;;;;;;13.05;6.22;;;;;;;;;;5059990;28;20060;-88
2021/10/08 11:35:32;;;;;;;13.57;5.60;;;;;;;;;;5063539;28;20049;-88
2021/10/08 11:37:58;;;;;;;6.38;4.32;;;;;;;;;;5061202;28;20021;-88
2021/10/08 11:40:31;;;;;;;8.38;4.05;;;;;;;;;;5063549;28;20028;-89
2021/10/08 11:43:01;;;;;;;9.13;4.38;;;;;;;;;;5062284;28;20028;-87
2021/10/08 11:45:36;;;;;;;10.32;4.38;;;;;;;;;;5060706;28;20024;-88
2021/10/08 11:48:11;;;;;;;7.50;4.32;;;;;;;;;;5065362;28;20036;-87
2021/10/08 11:53:03;;;;;;;5.80;4.05;;;;;;;;;;5079281;28;20043;-88
2021/10/08 11:55:32;;;;;;;11.68;4.25;;;;;;;;;;5077094;28;20005;-88
2021/10/08 11:58:07;;;;;;;6.10;3.60;;;;;;;;;;5067862;28;20029;-88
2021/10/08 12:00:47;;;;;;;10.18;4.80;;;;;;;;;;5075236;28;20020;-87
2021/10/08 12:03:15;;;;;;;16.05;4.63;;;;;;;;;;5069496;28;20055;-88
2021/10/08 12:05:53;;;;;;;6.15;3.70;;;;;;;;;;5062378;28;20059;-87
2021/10/08 12:08:21;;;;;;;11.60;4.15;;;;;;;;;;5061653;28;20052;-88
2021/10/08 12:11:02;;;;;;;5.32;3.83;;;;;;;;;;5060295;28;20425;-87
2021/10/08 12:13:52;;;;;;;10.27;3.85;;;;;;;;;;5061333;28;20040;-88
2021/10/08 12:16:23;;;;;;;12.50;4.70;;;;;;;;;;5059525;28;20029;-88
2021/10/08 12:18:56;;;;;;;8.05;4.00;;;;;;;;;;5057115;28;20021;-86
2021/10/08 12:21:27;;;;;;;8.20;4.95;;;;;;;;;;5057341;28;20476;-87
2021/10/08 12:24:01;;;;;;;6.43;3.78;;;;;;;;;;5056506;28;20103;-87
2021/10/08 12:26:27;;;;;;;5.00;3.28;;;;;;;;;;5056467;28;20033;-87
2021/10/08 12:28:54;;;;;;;8.23;3.53;;;;;;;;;;5056287;28;20484;-87
2021/10/08 12:31:21;;;;;;;9.75;3.70;;;;;;;;;;5055118;28;20035;-86
2021/10/08 12:33:48;;;;;;;10.30;4.20;;;;;;;;;;5056455;28;20036;-85
2021/10/08 12:36:29;;;;;;;5.70;3.33;;;;;;;;;;5056935;28;20028;-85
2021/10/08 12:39:11;;;;;;;4.78;3.35;;;;;;;;;;5056245;28;20020;-86
2021/10/08 12:41:53;;;;;;;9.75;4.20;;;;;;;;;;5054226;28;20033;-87
2021/10/08 12:44:23;;;;;;;8.48;3.00;;;;;;;;;;5054390;28;20021;-84
2021/10/08 12:49:46;;;;;;;7.03;2.90;;;;;;;;;;5055806;28;20059;-84
2021/10/08 12:52:12;;;;;;;9.32;2.75;;;;;;;;;;5055965;28;20025;-85
2021/10/08 12:54:37;;;;;;;18.95;4.30;;;;;;;;;;5045926;28;20120;-84
2021/10/08 12:57:14;;;;;;;10.57;2.90;;;;;;;;;;5035179;28;20021;-84
2021/10/08 12:59:55;;;;;;;7.40;3.15;;;;;;;;;;5033869;28;20120;-84
2021/10/08 13:02:49;;;;;;;10.68;3.10;;;;;;;;;;5033905;28;20034;-84
2021/10/08 13:05:14;;;;;;;12.45;3.75;;;;;;;;;;5041573;28;20043;-84
2021/10/08 13:07:41;;;;;;;5.63;2.95;;;;;;;;;;5035603;28;20123;-84
2021/10/08 13:10:12;;;;;;;11.70;3.90;;;;;;;;;;5035020;28;20056;-85
2021/10/08 13:12:56;;;;;;;7.57;3.03;;;;;;;;;;5034422;28;20033;-86
2021/10/08 13:15:28;;;;;;;6.45;2.80;;;;;;;;;;5034264;28;20025;-85
2021/10/08 13:18:15;;;;;;;5.75;2.35;;;;;;;;;;5038502;28;20028;-88
2021/10/08 13:20:44;;;;;;;10.60;2.60;;;;;;;;;;5066249;28;20036;-87
2021/10/08 13:23:11;;;;;;;9.32;2.58;;;;;;;;;;5038045;28;20029;-86
2021/10/08 13:25:39;;;;;;;5.28;2.85;;;;;;;;;;5033792;28;20549;-87
2021/10/08 13:28:06;;;;;;;6.57;2.50;;;;;;;;;;5034039;28;20485;-87
2021/10/08 13:30:32;;;;;;;10.52;2.90;;;;;;;;;;5051463;28;20029;-87
2021/10/08 13:32:58;;;;;;;3.58;2.33;;;;;;;;;;5053965;28;20056;-87
2021/10/08 13:35:23;;;;;;;4.18;2.67;;;;;;;;;;5050133;28;20049;-87
2021/10/08 13:37:48;;;;;;;7.85;3.30;;;;;;;;;;5054330;28;20451;-87
2021/10/08 13:40:14;;;;;;;7.25;2.80;;;;;;;;;;5042722;28;20021;-86
2021/10/08 13:42:41;;;;;;;8.65;3.03;;;;;;;;;;5033773;28;20052;-87
2021/10/08 13:45:08;;;;;;;6.80;3.90;;;;;;;;;;5048903;28;20433;-86
2021/10/08 13:47:33;;;;;;;9.10;2.97;;;;;;;;;;5045806;28;20056;-87
2021/10/08 13:49:59;;;;;;;12.75;2.67;;;;;;;;;;5046143;28;20118;-87
2021/10/08 13:52:24;;;;;;;6.07;5.00;;;;;;;;;;5042435;28;20489;-87
2021/10/08 13:54:49;;;;;;;6.25;2.88;;;;;;;;;;5038253;28;20162;-87
2021/10/08 13:57:15;;;;;;;9.13;3.25;;;;;;;;;;5053648;28;20074;-87
2021/10/08 13:59:40;;;;;;;5.18;2.88;;;;;;;;;;5038719;28;20029;-87
2021/10/08 14:02:10;;;;;;;6.80;3.00;;;;;;;;;;5052249;28;20065;-87
2021/10/08 14:12:29;;;;;;;9.88;3.45;;;;;;;;;;5060152;28;20033;-87
2021/10/08 14:14:56;;;;;;;7.60;3.70;;;;;;;;;;5054552;28;20115;-87
2021/10/08 14:17:21;;;;;;;10.93;3.90;;;;;;;;;;5054928;28;20028;-87
2021/10/08 14:19:46;;;;;;;7.82;4.05;;;;;;;;;;5056199;28;20404;-87
2021/10/08 14:22:12;;;;;;;13.80;4.05;;;;;;;;;;5058586;28;20067;-87
2021/10/08 14:24:37;;;;;;;5.38;3.88;;;;;;;;;;5058309;28;20131;-87
2021/10/08 14:27:02;;;;;;;5.32;3.72;;;;;;;;;;5057880;28;20028;-87
2021/10/08 14:29:28;;;;;;;16.08;8.27;;;;;;;;;;5056205;28;20090;-87
2021/10/08 14:31:53;;;;;;;12.32;4.05;;;;;;;;;;5057947;28;20044;-87
2021/10/08 14:34:19;;;;;;;9.18;3.45;;;;;;;;;;5056734;28;20043;-87
2021/10/08 14:36:44;;;;;;;6.07;4.15;;;;;;;;;;5056706;28;20025;-86
2021/10/08 14:39:10;;;;;;;11.20;4.28;;;;;;;;;;5057443;28;20017;-86
2021/10/08 14:41:35;;;;;;;12.80;3.60;;;;;;;;;;5054692;28;20024;-86
2021/10/08 14:44:00;;;;;;;9.60;4.45;;;;;;;;;;5059448;28;20021;-86
2021/10/08 14:46:26;;;;;;;6.03;3.38;;;;;;;;;;5057759;28;20475;-87
2021/10/08 14:48:55;;;;;;;8.70;4.03;;;;;;;;;;5055243;28;20025;-87
2021/10/08 14:51:25;;;;;;;7.43;3.97;;;;;;;;;;5057529;28;20048;-87
2021/10/08 14:53:50;;;;;;;10.25;4.30;;;;;;;;;;5054744;28;20091;-88
2021/10/08 14:56:23;;;;;;;9.98;4.35;;;;;;;;;;5057190;28;20465;-87
2021/10/08 14:58:49;;;;;;;7.10;4.35;;;;;;;;;;5054245;28;20028;-87
2021/10/08 15:01:19;;;;;;;10.27;4.35;;;;;;;;;;5055576;28;20021;-87
2021/10/08 15:03:45;;;;;;;8.57;4.30;;;;;;;;;;5054789;28;20032;-87
2021/10/08 15:06:10;;;;;;;18.00;5.35;;;;;;;;;;5056828;28;20025;-87
2021/10/08 15:08:36;;;;;;;15.85;5.63;;;;;;;;;;5057036;28;20123;-87
2021/10/08 15:11:01;;;;;;;6.93;4.28;;;;;;;;;;5056752;28;20078;-87
2021/10/08 15:13:26;;;;;;;12.65;5.13;;;;;;;;;;5054500;28;20097;-88
2021/10/08 15:15:53;;;;;;;11.68;4.90;;;;;;;;;;5057187;28;20451;-88
2021/10/08 15:18:18;;;;;;;12.77;4.65;;;;;;;;;;5055363;28;20029;-87
2021/10/08 15:20:44;;;;;;;17.25;4.95;;;;;;;;;;5052803;28;20048;-88
2021/10/08 15:23:09;;;;;;;16.08;5.03;;;;;;;;;;5054872;28;20053;-88
2021/10/08 15:25:35;;;;;;;12.40;5.45;;;;;;;;;;5057119;28;20028;-88
2021/10/08 15:28:00;;;;;;;10.02;4.57;;;;;;;;;;5055292;28;20029;-88